Maplewood, Minnesota
Current Conditions -  °F | °C
As of 6:53 PM on Friday 24 Oct 2014 (Local Time) from KSTP Reporting Station
Clear Clear  
Wind Chill: 57°   Ceiling: Unl
Heat Index: 57°   Visibility: 10mi
Dew Point: 54°   Wind: 7mph
Humidity: 89%   Direction: 160°SSE
Pressure: 29.86"   Gusts: NA
Location:  45.01°N, 93.02°W
Report Text: KSTP 242353Z 16006KT 10SM CLR 14/12 A2986 RMK AO2 SLP111 T01390122 10183 20139 52007
Loading
Personal Weather Stations






























Interactive Weather Map
Tropical Storm Tracking
New forecast layout! Learn more

10-Day Weather Forecast

Advertisements
Track Severe Weather on mobile